createdAt,value
2017-06-27T00:01:22.388Z,61.69
2017-06-27T00:03:24.031Z,61.50
2017-06-27T00:05:25.786Z,62.36
2017-06-27T00:07:27.460Z,62.17
2017-06-27T00:09:29.264Z,61.40
2017-06-27T00:11:30.979Z,61.21
2017-06-27T00:13:32.676Z,61.79
2017-06-27T00:15:34.820Z,62.84
2017-06-27T00:17:36.708Z,62.84
2017-06-27T00:19:38.588Z,62.26
2017-06-27T00:21:40.626Z,62.71
2017-06-27T00:23:42.410Z,62.52
2017-06-27T00:25:44.452Z,62.90
2017-06-27T00:27:46.578Z,62.65
2017-06-27T00:29:48.416Z,62.52
2017-06-27T00:31:50.089Z,62.23
2017-06-27T00:33:51.846Z,62.62
2017-06-27T00:35:53.630Z,63.10
2017-06-27T00:37:55.478Z,63.10
2017-06-27T00:39:57.309Z,62.81
2017-06-27T00:41:59.128Z,63.10
2017-06-27T00:44:00.901Z,63.10
2017-06-27T00:46:02.660Z,63.29
2017-06-27T00:48:04.495Z,63.48
2017-06-27T00:50:06.241Z,63.48
2017-06-27T00:52:08.172Z,63.19
2017-06-27T00:54:09.858Z,63.29
2017-06-27T00:56:11.568Z,63.19
2017-06-27T00:58:13.594Z,63.39
2017-06-27T01:00:15.583Z,63.10
2017-06-27T01:02:17.480Z,63.10
2017-06-27T01:04:19.163Z,63.29
2017-06-27T01:06:21.094Z,63.76
2017-06-27T01:08:23.146Z,63.86
2017-06-27T01:10:25.149Z,63.45
2017-06-27T01:12:27.397Z,64.02
2017-06-27T01:14:29.321Z,63.93
2017-06-27T01:16:31.007Z,64.31
2017-06-27T01:18:32.822Z,63.83
2017-06-27T01:20:34.649Z,64.12
2017-06-27T01:22:36.437Z,64.12
2017-06-27T01:24:38.481Z,64.50
2017-06-27T01:26:40.238Z,64.40
2017-06-27T01:28:41.944Z,64.22
2017-06-27T01:30:43.635Z,64.12
2017-06-27T01:32:45.421Z,64.98
2017-06-27T01:34:47.171Z,64.98
2017-06-27T01:36:49.010Z,64.59
2017-06-27T01:38:50.758Z,64.69
2017-06-27T01:40:52.222Z,64.59
2017-06-27T01:42:53.700Z,64.88
2017-06-27T01:44:55.240Z,65.08
2017-06-27T01:46:56.703Z,64.22
2017-06-27T01:48:58.127Z,64.47
2017-06-27T01:50:59.634Z,64.85
2017-06-27T01:53:01.213Z,64.95
2017-06-27T01:55:02.692Z,65.81
2017-06-27T01:57:04.204Z,66.09
2017-06-27T01:59:05.743Z,65.90
2017-06-27T02:01:07.246Z,65.81
2017-06-27T02:03:08.722Z,65.71
2017-06-27T02:05:10.246Z,65.71
2017-06-27T02:07:11.726Z,65.71
2017-06-27T02:09:13.185Z,66.00
2017-06-27T02:11:14.744Z,65.81
2017-06-27T02:13:16.548Z,65.71
2017-06-27T02:15:18.279Z,66.28
2017-06-27T02:17:20.285Z,66.38
2017-06-27T02:19:22.103Z,66.57
2017-06-27T02:21:23.984Z,66.28
2017-06-27T02:23:25.714Z,66.67
2017-06-27T02:25:27.475Z,66.67
2017-06-27T02:27:29.133Z,66.76
2017-06-27T02:29:31.177Z,66.00
2017-06-27T02:31:32.914Z,66.28
2017-06-27T02:33:34.697Z,66.47
2017-06-27T02:35:36.409Z,66.67
2017-06-27T02:37:38.212Z,66.47
2017-06-27T02:39:39.924Z,66.76
2017-06-27T02:41:41.739Z,66.96
2017-06-27T02:43:43.551Z,66.76
2017-06-27T02:45:45.396Z,66.57
2017-06-27T02:47:47.467Z,66.57
2017-06-27T02:49:49.343Z,66.76
2017-06-27T02:51:51.121Z,67.59
2017-06-27T02:53:52.914Z,67.40
2017-06-27T02:55:54.912Z,67.40
2017-06-27T02:57:57.078Z,67.69
2017-06-27T02:59:58.809Z,67.49
2017-06-27T03:02:00.574Z,67.69
2017-06-27T03:04:02.699Z,67.88
2017-06-27T03:06:04.547Z,68.26
2017-06-27T03:08:06.239Z,68.16
2017-06-27T03:10:08.036Z,68.26
2017-06-27T03:12:09.901Z,68.26
2017-06-27T03:14:11.899Z,67.49
2017-06-27T03:16:13.798Z,67.69
2017-06-27T03:18:15.874Z,67.97
2017-06-27T03:20:17.805Z,68.26
2017-06-27T03:22:19.540Z,68.45
2017-06-27T03:24:21.361Z,68.26
2017-06-27T03:26:23.262Z,68.26
2017-06-27T03:28:24.915Z,68.35
2017-06-27T03:30:26.710Z,68.26
2017-06-27T03:32:28.753Z,68.45
2017-06-27T03:34:30.490Z,68.55
2017-06-27T03:36:32.174Z,68.45
2017-06-27T03:38:33.890Z,69.21
2017-06-27T03:40:35.607Z,68.93
2017-06-27T03:42:37.451Z,69.12
2017-06-27T03:44:39.310Z,69.02
2017-06-27T03:46:41.252Z,69.31
2017-06-27T03:48:43.122Z,69.31
2017-06-27T03:50:44.958Z,69.21
2017-06-27T03:52:47.085Z,69.02
2017-06-27T03:54:49.237Z,69.21
2017-06-27T03:56:51.333Z,69.12
2017-06-27T03:58:53.007Z,69.31
2017-06-27T04:00:54.853Z,69.50
2017-06-27T04:02:56.968Z,68.93
2017-06-27T04:04:58.740Z,69.02
2017-06-27T04:07:00.543Z,69.21
2017-06-27T04:09:02.320Z,70.17
2017-06-27T04:11:04.254Z,70.11
2017-06-27T04:13:06.067Z,69.92
2017-06-27T04:15:08.001Z,69.73
2017-06-27T04:17:09.920Z,69.54
2017-06-27T04:19:11.883Z,69.82
2017-06-27T04:21:13.682Z,70.11
2017-06-27T04:23:15.577Z,70.01
2017-06-27T04:25:17.320Z,70.21
2017-06-27T04:27:19.534Z,70.50
2017-06-27T04:29:21.341Z,70.87
2017-06-27T04:31:23.855Z,69.82
2017-06-27T04:33:25.665Z,69.44
2017-06-27T04:35:27.471Z,68.68
2017-06-27T04:37:29.312Z,69.19
2017-06-27T04:39:31.053Z,69.76
2017-06-27T04:41:32.826Z,69.29
2017-06-27T04:43:35.132Z,69.19
2017-06-27T04:45:37.577Z,68.52
2017-06-27T04:47:39.263Z,68.62
2017-06-27T04:49:41.097Z,69.00
2017-06-27T04:51:42.823Z,68.52
2017-06-27T04:53:44.454Z,68.74
2017-06-27T04:55:46.063Z,68.36
2017-06-27T04:57:47.763Z,68.52
2017-06-27T04:59:49.669Z,69.03
2017-06-27T05:01:51.365Z,68.65
2017-06-27T05:03:53.192Z,68.94
2017-06-27T05:05:55.058Z,67.88
2017-06-27T05:07:57.189Z,68.36
2017-06-27T05:09:59.747Z,67.88
2017-06-27T05:12:01.413Z,67.31
2017-06-27T05:14:03.179Z,67.63
2017-06-27T05:16:04.910Z,66.00
2017-06-27T05:18:07.331Z,65.05
2017-06-27T05:20:08.993Z,65.91
2017-06-27T05:22:10.813Z,65.91
2017-06-27T05:24:15.466Z,64.18
2017-06-27T05:26:17.669Z,65.05
2017-06-27T05:28:19.899Z,65.05
2017-06-27T05:30:21.740Z,63.99
2017-06-27T05:32:24.200Z,64.31
2017-06-27T12:54:08.060Z,53.49
2017-06-27T12:56:10.817Z,50.89
2017-06-27T12:58:12.919Z,50.98
2017-06-27T13:00:14.762Z,50.31
2017-06-27T13:02:16.846Z,52.72
2017-06-27T13:04:18.768Z,50.98
2017-06-27T13:06:21.637Z,51.68
2017-06-27T13:08:23.560Z,48.79
2017-06-27T13:10:26.073Z,50.21
2017-06-27T13:12:29.482Z,49.65
2017-06-27T13:14:30.830Z,49.27
2017-06-27T13:16:33.003Z,48.88
2017-06-27T13:18:35.250Z,49.65
2017-06-27T13:20:37.584Z,49.17
2017-06-27T13:22:39.776Z,49.65
2017-06-27T13:24:42.041Z,49.77
2017-06-27T13:26:44.250Z,48.97
2017-06-27T13:28:46.365Z,49.17
2017-06-27T13:30:48.423Z,48.88
2017-06-27T13:32:50.516Z,49.10
2017-06-27T13:34:52.469Z,48.69
2017-06-27T13:36:54.318Z,49.37
2017-06-27T13:38:56.573Z,48.97
2017-06-27T13:40:59.894Z,49.07
2017-06-27T13:43:02.240Z,48.88
2017-06-27T13:45:04.015Z,49.75
2017-06-27T13:47:06.051Z,50.13
2017-06-27T13:49:08.256Z,51.01
2017-06-27T13:51:10.205Z,49.75
2017-06-27T13:53:12.236Z,52.26
2017-06-27T13:55:14.694Z,51.20
2017-06-27T13:57:16.448Z,50.71
2017-06-27T13:59:18.364Z,51.68
2017-06-27T14:01:20.209Z,51.01
2017-06-27T14:03:21.726Z,51.87
2017-06-27T14:05:23.372Z,52.17
2017-06-27T14:07:24.890Z,52.81
2017-06-27T14:09:26.402Z,52.23
2017-06-27T14:11:27.913Z,53.23
2017-06-27T14:13:29.406Z,55.45
2017-06-27T14:15:31.116Z,56.71
2017-06-27T14:17:32.986Z,56.03
2017-06-27T14:19:34.788Z,57.38
2017-06-27T14:21:36.598Z,56.39
2017-06-27T14:23:38.594Z,55.23
2017-06-27T14:25:40.436Z,54.77
2017-06-27T14:27:42.236Z,54.27
2017-06-27T14:29:44.099Z,54.75
2017-06-27T14:31:45.954Z,54.65
2017-06-27T14:33:47.787Z,54.84
2017-06-27T14:35:49.839Z,54.84
2017-06-27T14:37:51.637Z,54.55
2017-06-27T14:39:53.468Z,54.55
2017-06-27T14:41:55.650Z,54.27
2017-06-27T14:43:57.553Z,53.59
2017-06-27T14:45:59.364Z,53.59
2017-06-27T14:48:01.329Z,53.88
2017-06-27T14:50:03.472Z,53.69
2017-06-27T14:52:49.076Z,53.56
2017-06-27T14:55:33.075Z,53.56
2017-06-27T14:58:15.629Z,54.43
2017-06-27T15:00:17.859Z,54.53
2017-06-27T15:02:19.429Z,54.82
2017-06-27T15:05:00.898Z,55.20
2017-06-27T15:07:43.407Z,54.62
2017-06-27T15:09:44.892Z,54.82
2017-06-27T15:12:27.616Z,54.72
2017-06-27T15:14:29.183Z,54.33
2017-06-27T15:17:11.654Z,54.53
2017-06-27T15:19:13.191Z,55.49
2017-06-27T15:21:55.748Z,55.40
2017-06-27T15:23:58.388Z,54.72
2017-06-27T15:26:39.747Z,55.10
2017-06-27T15:28:44.486Z,54.72
2017-06-27T15:31:29.111Z,55.68
2017-06-27T15:33:32.136Z,55.01
2017-06-27T15:35:33.997Z,55.20
2017-06-27T15:37:35.845Z,55.01
2017-06-27T15:39:37.778Z,55.68
2017-06-27T15:41:39.635Z,54.82
2017-06-27T15:43:41.488Z,55.59
2017-06-27T15:46:23.993Z,55.30
2017-06-27T15:49:10.801Z,54.84
2017-06-27T15:51:54.444Z,55.59
2017-06-27T15:53:56.231Z,55.88
2017-06-27T15:55:58.212Z,55.78
2017-06-27T15:58:00.151Z,55.49
2017-06-27T16:00:44.802Z,55.78
2017-06-27T16:03:28.064Z,55.59
2017-06-27T16:05:29.954Z,56.16
2017-06-27T16:08:12.493Z,56.26
2017-06-27T16:10:15.363Z,55.68
2017-06-27T16:13:01.669Z,55.78
2017-06-27T16:15:43.780Z,56.36
2017-06-27T16:17:45.305Z,56.84
2017-06-27T16:19:46.794Z,56.74
2017-06-27T16:22:29.417Z,57.52
2017-06-27T16:24:31.334Z,58.58
2017-06-27T16:26:33.631Z,58.58
2017-06-27T16:28:35.306Z,58.84
2017-06-27T16:30:37.649Z,59.74
2017-06-27T16:32:39.498Z,60.51
2017-06-27T16:34:42.056Z,60.00
2017-06-27T16:36:43.871Z,60.68
2017-06-27T16:38:46.301Z,60.86
2017-06-27T16:40:48.681Z,60.48
2017-06-27T16:42:50.211Z,60.68
2017-06-27T16:44:51.891Z,62.05
2017-06-27T16:46:53.392Z,61.93
2017-06-27T16:48:54.916Z,62.89
2017-06-27T16:50:58.899Z,63.47
2017-06-27T16:53:00.437Z,64.34
2017-06-27T16:55:02.160Z,64.15
2017-06-27T16:57:03.904Z,65.11
2017-06-27T16:59:06.183Z,65.59
2017-06-27T17:01:08.134Z,66.56
2017-06-27T17:03:09.898Z,67.91
2017-06-27T17:05:11.694Z,68.97
2017-06-27T17:07:13.537Z,69.26
2017-06-27T17:09:15.274Z,69.90
2017-06-27T17:11:57.835Z,70.57
2017-06-27T17:14:00.033Z,71.92
2017-06-27T17:16:01.493Z,70.80
2017-06-27T17:18:04.421Z,72.12
2017-06-27T17:20:06.146Z,71.34
2017-06-27T17:22:10.326Z,71.34
2017-06-27T17:24:13.738Z,72.60
2017-06-27T17:26:15.401Z,73.37
2017-06-27T17:28:17.287Z,72.50
2017-06-27T17:30:19.188Z,72.89
2017-06-27T17:32:24.589Z,73.95
2017-06-27T17:34:26.769Z,73.62
2017-06-27T17:36:28.309Z,74.14
2017-06-27T17:38:29.751Z,73.85
2017-06-27T17:40:31.505Z,75.01
2017-06-27T17:42:40.763Z,74.62
2017-06-27T17:44:42.419Z,74.52
2017-06-27T17:46:44.341Z,74.05
2017-06-27T17:48:52.300Z,74.33
2017-06-27T18:07:49.102Z,75.36
2017-06-27T18:09:50.664Z,75.45
2017-06-27T18:11:52.137Z,75.65
2017-06-27T18:13:53.647Z,76.61
2017-06-27T18:15:55.200Z,76.67
2017-06-27T18:17:56.669Z,77.25
2017-06-27T18:19:58.140Z,77.15
2017-06-27T18:21:59.589Z,76.38
2017-06-27T18:24:01.016Z,77.92
2017-06-27T18:26:02.450Z,77.44
2017-06-27T18:28:03.881Z,76.57
2017-06-27T18:30:05.328Z,76.67
2017-06-27T18:32:06.764Z,76.44
2017-06-27T18:34:08.195Z,77.69
2017-06-27T18:36:09.628Z,78.08
2017-06-27T18:38:11.055Z,77.98
2017-06-27T18:40:12.483Z,77.78
2017-06-27T18:42:13.944Z,76.63
2017-06-27T18:44:15.358Z,77.40
2017-06-27T18:46:16.801Z,77.01
2017-06-27T18:48:18.262Z,77.40
2017-06-27T18:50:19.729Z,77.59
2017-06-27T18:52:21.278Z,77.59
2017-06-27T18:54:22.801Z,77.69
2017-06-27T18:56:24.307Z,77.98
2017-06-27T18:58:25.771Z,78.08
2017-06-27T19:00:27.224Z,78.08
2017-06-27T19:02:28.706Z,78.65
2017-06-27T19:04:30.179Z,78.08
2017-06-27T19:06:31.683Z,78.36
2017-06-27T19:08:33.106Z,77.69
2017-06-27T19:10:34.540Z,78.75
2017-06-27T19:12:36.003Z,79.13
2017-06-27T19:14:37.434Z,78.08
2017-06-27T19:16:38.865Z,78.75
2017-06-27T19:18:40.302Z,79.03
2017-06-27T19:20:41.725Z,78.75
2017-06-27T19:22:43.171Z,78.85
2017-06-27T19:24:44.605Z,79.23
2017-06-27T19:26:46.034Z,78.46
2017-06-27T19:28:47.470Z,78.85
2017-06-27T19:30:48.894Z,78.85
2017-06-27T19:32:50.326Z,79.23
2017-06-27T19:34:51.831Z,79.23
2017-06-27T19:36:53.326Z,79.38
2017-06-27T19:38:54.827Z,79.03
2017-06-27T19:40:56.317Z,79.00
2017-06-27T19:42:57.841Z,79.38
2017-06-27T19:44:59.303Z,79.67
2017-06-27T19:47:01.689Z,79.48
2017-06-27T19:49:03.150Z,79.86
2017-06-27T19:51:04.704Z,79.86
2017-06-27T19:53:06.162Z,79.71
2017-06-27T19:55:07.981Z,78.90
2017-06-27T19:57:09.483Z,79.38
2017-06-27T19:59:10.946Z,79.19
2017-06-27T20:01:12.731Z,79.00
2017-06-27T20:03:14.198Z,79.58
2017-06-27T20:05:15.678Z,79.86
2017-06-27T20:07:17.160Z,79.28
2017-06-27T20:09:18.855Z,79.00
2017-06-27T20:11:20.381Z,79.10
2017-06-27T20:13:21.933Z,79.86
2017-06-27T20:15:23.440Z,79.96
2017-06-27T20:17:24.975Z,79.86
2017-06-27T20:19:26.539Z,79.00
2017-06-27T20:21:28.521Z,79.38
2017-06-27T20:23:30.024Z,78.42
2017-06-27T20:25:31.635Z,79.10
2017-06-27T20:27:33.111Z,79.48
2017-06-27T20:29:34.544Z,79.19
2017-06-27T20:31:35.976Z,80.25
2017-06-27T20:33:37.463Z,79.19
2017-06-27T20:35:38.924Z,79.38
2017-06-27T20:37:40.373Z,78.71
2017-06-27T20:39:41.801Z,79.28
2017-06-27T20:41:43.228Z,79.67
2017-06-27T20:43:44.657Z,79.77
2017-06-27T20:45:46.087Z,79.96
2017-06-27T20:47:47.537Z,80.63
2017-06-27T20:49:49.001Z,81.46
2017-06-27T20:51:50.489Z,80.06
2017-06-27T20:53:51.953Z,80.40
2017-06-27T20:55:53.392Z,80.40
2017-06-27T20:57:54.824Z,80.88
2017-06-27T20:59:56.330Z,80.88
2017-06-27T21:01:57.803Z,81.75
2017-06-27T21:03:59.268Z,79.92
2017-06-27T21:06:00.708Z,80.88
2017-06-27T21:08:02.137Z,80.50
2017-06-27T21:10:03.594Z,81.84
2017-06-27T21:12:05.024Z,81.56
2017-06-27T21:14:06.451Z,82.32
2017-06-27T21:16:07.882Z,81.94
2017-06-27T21:18:09.310Z,82.04
2017-06-27T21:20:10.732Z,81.46
2017-06-27T21:22:12.163Z,82.14
2017-06-27T21:24:13.651Z,81.56
2017-06-27T21:26:15.171Z,81.94
2017-06-27T21:28:16.650Z,81.65
2017-06-27T21:30:18.149Z,81.07
2017-06-27T21:32:19.856Z,81.94
2017-06-27T21:34:21.347Z,82.32
2017-06-27T21:36:22.813Z,81.94
2017-06-27T21:38:24.346Z,82.14
2017-06-27T21:40:25.855Z,81.84
2017-06-27T21:42:27.333Z,82.32
2017-06-27T21:44:28.786Z,81.65
2017-06-27T21:46:30.267Z,81.84
2017-06-27T21:48:31.719Z,82.81
2017-06-27T21:50:33.193Z,82.14
2017-06-27T21:52:34.640Z,82.23
2017-06-27T21:54:36.064Z,82.81
2017-06-27T21:56:37.491Z,82.32
2017-06-27T21:58:38.917Z,83.09
2017-06-27T22:00:40.354Z,82.81
2017-06-27T22:02:41.790Z,82.90
2017-06-27T22:04:43.244Z,82.81
2017-06-27T22:06:44.669Z,82.32
2017-06-27T22:08:46.098Z,81.84
2017-06-27T22:10:47.870Z,82.14
2017-06-27T22:12:49.334Z,82.71
2017-06-27T22:14:50.766Z,81.94
2017-06-27T22:16:52.219Z,82.04
2017-06-27T22:18:53.657Z,82.04
2017-06-27T22:20:55.087Z,82.52
2017-06-27T22:22:56.513Z,82.81
2017-06-27T22:24:57.942Z,82.71
2017-06-27T22:26:59.372Z,82.14
2017-06-27T22:29:00.804Z,82.61
2017-06-27T22:31:02.299Z,81.65
2017-06-27T22:33:03.742Z,82.32
2017-06-27T22:35:05.174Z,82.32
2017-06-27T22:37:06.600Z,81.40
2017-06-27T22:39:08.030Z,81.27
2017-06-27T22:41:09.469Z,82.14
2017-06-27T22:43:10.951Z,82.14
2017-06-27T22:45:12.459Z,82.32
2017-06-27T22:47:13.897Z,82.90
2017-06-27T22:49:15.325Z,82.90
2017-06-27T22:51:16.753Z,82.42
2017-06-27T22:53:18.187Z,82.32
2017-06-27T22:55:19.625Z,82.61
2017-06-27T22:57:21.054Z,82.81
2017-06-27T22:59:22.482Z,82.32
2017-06-27T23:01:23.906Z,82.14
2017-06-27T23:03:25.336Z,82.61
2017-06-27T23:05:26.763Z,83.00
2017-06-27T23:07:28.196Z,82.52
2017-06-27T23:09:29.624Z,82.61
2017-06-27T23:11:31.052Z,81.75
2017-06-27T23:13:32.478Z,81.75
2017-06-27T23:15:33.905Z,82.32
2017-06-27T23:17:35.339Z,81.94
2017-06-27T23:19:36.767Z,81.84
2017-06-27T23:21:38.192Z,81.84
2017-06-27T23:23:39.642Z,81.75
2017-06-27T23:25:41.070Z,81.65
2017-06-27T23:27:42.501Z,81.84
2017-06-27T23:29:43.927Z,82.32
2017-06-27T23:31:45.347Z,82.04
2017-06-27T23:33:46.826Z,82.71
2017-06-27T23:35:48.268Z,82.42
2017-06-27T23:37:49.697Z,82.90
2017-06-27T23:39:51.138Z,82.04
2017-06-27T23:41:52.604Z,81.84
2017-06-27T23:43:54.047Z,81.75
2017-06-27T23:45:55.503Z,81.94
2017-06-27T23:47:57.021Z,81.99
2017-06-27T23:49:58.471Z,82.09
2017-06-27T23:51:59.942Z,81.81
2017-06-27T23:54:01.397Z,81.90
2017-06-27T23:56:02.898Z,82.86
2017-06-27T23:58:04.356Z,82.67
